Aeroporto :
LOGIN :

Iscrizione | Disclaimer

   EN    FR    IT 

 










Sommario :    VFR   VFR Marginale   IFR   IFR Intensivo   IFR Molto Intensivo
Visibilità : 
Base nubi : 
>= 8 km
>= 3000ft
5 / 8 km
1000 / 3000 ft
1500m / 5 km
500 / 1000 ft
800 / 1500m
200 / 500 ft
< 800m
< 200 ft
Simboli :   Temporali  Nebbia  Neve Forte  Precipitazioni Forti  Vento > 20 kt
SIGMETs :   Varie  Temporali  Ghiacco  Turbolenza  Onda orograficha  Ceneri Vulcaniche






- Altitudine del aeroporto : 876 ft
- Codice IATA : MBX


LJMB - Maribor

ULTIMO METAR :
  • 162130Z AUTO 34004KT 7000 FEW003/// 10/09 Q1014

METARs OBSOLETI :
  • 162100Z 33004KT 6000 OVC017 10/10 Q1015
  • 162030Z 14002KT 6000 FEW007 OVC050 10/09 Q1015
  • 162000Z 09003KT 060V120 9999 FEW007 BKN055 10/10 Q1015
  • 161930Z VRB02KT 9999 BKN050 10/09 Q1015
  • 161900Z VRB01KT 9999 -RA NSC 10/10 Q1015

TAF TAF LJMB
Valido dal 16 a 21 ore il 17 a 21 ore UTC


162000Z 1621/1721 36005KT 9999 FEW040 BKN060
TEMPO 1621/1703 -RA FEW020 BKN035 OVC050
PROB40
TEMPO 1702/1710 0350 FG VV002
BECMG 1710/1713 18005KT



MetMap, La meteo Aeronautica in un colpo d'occhio ! - Copyright ORBIFLY Dicembre 2007 - Disclaimer

ORBIFLY MET'MAP TEAM :

Programmazione e sviluppo : Alexandra Zaïnal
Concezione e sviluppo : Baudouin d'Aumeries
Co-Programmazione e sviluppo : Marc-Olivier Méhu
Supporto tecnico e logistico : Manuel Goepfert
Aiuto per la traduzione : Arnaldo La Scala

Contatto : metmap@orbifly.com




FONTI E CREDITI :

   NOAA